sensor_id;sensor_type;location;lat;lon;timestamp;P1;durP1;ratioP1;P2;durP2;ratioP2
61150;SDS011;47029;50.994;2.876;2023-01-31T00:01:19;18.35;;;6.97;;
61150;SDS011;47029;50.994;2.876;2023-01-31T00:03:47;19.42;;;6.82;;
61150;SDS011;47029;50.994;2.876;2023-01-31T00:06:21;23.20;;;6.90;;
61150;SDS011;47029;50.994;2.876;2023-01-31T00:08:51;16.55;;;6.72;;
61150;SDS011;47029;50.994;2.876;2023-01-31T00:11:18;23.15;;;6.95;;
61150;SDS011;47029;50.994;2.876;2023-01-31T00:13:46;18.58;;;6.75;;
61150;SDS011;47029;50.994;2.876;2023-01-31T00:16:15;19.35;;;6.47;;
61150;SDS011;47029;50.994;2.876;2023-01-31T00:18:41;15.05;;;6.90;;
61150;SDS011;47029;50.994;2.876;2023-01-31T00:21:18;19.73;;;7.30;;
61150;SDS011;47029;50.994;2.876;2023-01-31T00:23:48;18.90;;;7.32;;
61150;SDS011;47029;50.994;2.876;2023-01-31T00:26:19;17.75;;;6.37;;
61150;SDS011;47029;50.994;2.876;2023-01-31T00:28:51;18.87;;;7.00;;
61150;SDS011;47029;50.994;2.876;2023-01-31T00:31:23;24.27;;;7.12;;
61150;SDS011;47029;50.994;2.876;2023-01-31T00:33:51;16.75;;;6.90;;
61150;SDS011;47029;50.994;2.876;2023-01-31T00:36:20;21.05;;;6.82;;
61150;SDS011;47029;50.994;2.876;2023-01-31T00:38:51;18.52;;;6.30;;
61150;SDS011;47029;50.994;2.876;2023-01-31T00:41:19;18.75;;;6.55;;
61150;SDS011;47029;50.994;2.876;2023-01-31T00:43:46;21.52;;;7.05;;
61150;SDS011;47029;50.994;2.876;2023-01-31T00:46:17;19.17;;;7.40;;
61150;SDS011;47029;50.994;2.876;2023-01-31T00:48:46;20.52;;;6.70;;
61150;SDS011;47029;50.994;2.876;2023-01-31T00:51:15;17.60;;;7.00;;
61150;SDS011;47029;50.994;2.876;2023-01-31T00:53:41;20.45;;;6.20;;
61150;SDS011;47029;50.994;2.876;2023-01-31T00:56:11;18.80;;;7.65;;
61150;SDS011;47029;50.994;2.876;2023-01-31T00:58:40;19.83;;;7.15;;
61150;SDS011;47029;50.994;2.876;2023-01-31T01:03:35;22.05;;;7.15;;
61150;SDS011;47029;50.994;2.876;2023-01-31T01:06:01;20.17;;;7.00;;
61150;SDS011;47029;50.994;2.876;2023-01-31T01:08:28;19.75;;;6.28;;
61150;SDS011;47029;50.994;2.876;2023-01-31T01:10:54;17.62;;;6.90;;
61150;SDS011;47029;50.994;2.876;2023-01-31T01:13:23;20.88;;;7.37;;
61150;SDS011;47029;50.994;2.876;2023-01-31T01:15:49;16.40;;;5.90;;
61150;SDS011;47029;50.994;2.876;2023-01-31T01:18:14;17.12;;;6.07;;
61150;SDS011;47029;50.994;2.876;2023-01-31T01:20:42;25.20;;;9.82;;
61150;SDS011;47029;50.994;2.876;2023-01-31T01:23:08;18.20;;;6.53;;
61150;SDS011;47029;50.994;2.876;2023-01-31T01:25:40;19.83;;;6.28;;
61150;SDS011;47029;50.994;2.876;2023-01-31T01:28:07;14.15;;;5.72;;
61150;SDS011;47029;50.994;2.876;2023-01-31T01:30:32;16.55;;;5.85;;
61150;SDS011;47029;50.994;2.876;2023-01-31T01:32:58;15.75;;;5.70;;
61150;SDS011;47029;50.994;2.876;2023-01-31T01:35:24;17.52;;;5.80;;
61150;SDS011;47029;50.994;2.876;2023-01-31T01:37:50;22.10;;;6.85;;
61150;SDS011;47029;50.994;2.876;2023-01-31T01:40:16;19.40;;;8.10;;
61150;SDS011;47029;50.994;2.876;2023-01-31T01:42:41;19.12;;;7.32;;
61150;SDS011;47029;50.994;2.876;2023-01-31T01:45:11;19.75;;;6.75;;
61150;SDS011;47029;50.994;2.876;2023-01-31T01:50:16;20.10;;;6.43;;
61150;SDS011;47029;50.994;2.876;2023-01-31T01:52:59;21.42;;;6.25;;
61150;SDS011;47029;50.994;2.876;2023-01-31T01:58:07;16.65;;;5.57;;
61150;SDS011;47029;50.994;2.876;2023-01-31T02:00:39;19.23;;;6.12;;
61150;SDS011;47029;50.994;2.876;2023-01-31T02:03:06;17.62;;;5.90;;
61150;SDS011;47029;50.994;2.876;2023-01-31T02:05:37;15.60;;;6.50;;
61150;SDS011;47029;50.994;2.876;2023-01-31T02:08:07;19.37;;;6.75;;
61150;SDS011;47029;50.994;2.876;2023-01-31T02:10:54;25.50;;;7.82;;
61150;SDS011;47029;50.994;2.876;2023-01-31T02:13:26;18.60;;;6.32;;
61150;SDS011;47029;50.994;2.876;2023-01-31T02:15:53;23.73;;;7.47;;
61150;SDS011;47029;50.994;2.876;2023-01-31T02:18:22;22.50;;;7.03;;
61150;SDS011;47029;50.994;2.876;2023-01-31T02:34:34;21.30;;;7.25;;
61150;SDS011;47029;50.994;2.876;2023-01-31T02:37:05;20.75;;;7.10;;
61150;SDS011;47029;50.994;2.876;2023-01-31T02:42:46;20.77;;;7.00;;
61150;SDS011;47029;50.994;2.876;2023-01-31T02:53:15;20.40;;;7.28;;
61150;SDS011;47029;50.994;2.876;2023-01-31T02:58:48;16.45;;;6.75;;
61150;SDS011;47029;50.994;2.876;2023-01-31T03:01:20;17.55;;;6.90;;
61150;SDS011;47029;50.994;2.876;2023-01-31T03:03:49;20.62;;;7.05;;
61150;SDS011;47029;50.994;2.876;2023-01-31T03:11:20;16.98;;;7.18;;
61150;SDS011;47029;50.994;2.876;2023-01-31T03:16:52;15.80;;;6.55;;
61150;SDS011;47029;50.994;2.876;2023-01-31T03:22:19;20.35;;;6.80;;
61150;SDS011;47029;50.994;2.876;2023-01-31T03:25:14;19.23;;;6.37;;
61150;SDS011;47029;50.994;2.876;2023-01-31T03:27:44;19.48;;;6.75;;
61150;SDS011;47029;50.994;2.876;2023-01-31T03:30:18;17.33;;;6.57;;
61150;SDS011;47029;50.994;2.876;2023-01-31T03:33:00;20.45;;;6.60;;
61150;SDS011;47029;50.994;2.876;2023-01-31T03:35:34;17.08;;;6.30;;
61150;SDS011;47029;50.994;2.876;2023-01-31T03:38:10;23.40;;;6.53;;
61150;SDS011;47029;50.994;2.876;2023-01-31T03:41:28;25.12;;;6.65;;
61150;SDS011;47029;50.994;2.876;2023-01-31T03:43:32;14.52;;;6.07;;
61150;SDS011;47029;50.994;2.876;2023-01-31T03:46:10;26.10;;;6.78;;
61150;SDS011;47029;50.994;2.876;2023-01-31T03:48:51;17.77;;;6.18;;
61150;SDS011;47029;50.994;2.876;2023-01-31T03:51:21;19.50;;;6.20;;
61150;SDS011;47029;50.994;2.876;2023-01-31T03:53:52;22.50;;;7.30;;
61150;SDS011;47029;50.994;2.876;2023-01-31T03:56:29;17.10;;;5.93;;
61150;SDS011;47029;50.994;2.876;2023-01-31T04:01:33;19.70;;;6.50;;
61150;SDS011;47029;50.994;2.876;2023-01-31T04:04:04;17.10;;;5.93;;
61150;SDS011;47029;50.994;2.876;2023-01-31T04:06:34;17.45;;;5.90;;
61150;SDS011;47029;50.994;2.876;2023-01-31T04:09:00;18.40;;;6.50;;
61150;SDS011;47029;50.994;2.876;2023-01-31T04:11:26;19.17;;;6.28;;
61150;SDS011;47029;50.994;2.876;2023-01-31T04:13:52;18.05;;;6.43;;
61150;SDS011;47029;50.994;2.876;2023-01-31T04:16:18;16.48;;;6.20;;
61150;SDS011;47029;50.994;2.876;2023-01-31T04:18:44;19.80;;;6.37;;
61150;SDS011;47029;50.994;2.876;2023-01-31T04:21:10;19.73;;;7.47;;
61150;SDS011;47029;50.994;2.876;2023-01-31T04:23:39;16.17;;;6.05;;
61150;SDS011;47029;50.994;2.876;2023-01-31T04:26:04;18.05;;;6.97;;
61150;SDS011;47029;50.994;2.876;2023-01-31T04:28:30;20.88;;;6.50;;
61150;SDS011;47029;50.994;2.876;2023-01-31T04:30:56;14.77;;;6.10;;
61150;SDS011;47029;50.994;2.876;2023-01-31T04:33:22;17.50;;;6.55;;
61150;SDS011;47029;50.994;2.876;2023-01-31T04:35:49;18.90;;;6.87;;
61150;SDS011;47029;50.994;2.876;2023-01-31T04:38:15;22.00;;;6.90;;
61150;SDS011;47029;50.994;2.876;2023-01-31T04:40:41;16.35;;;6.62;;
61150;SDS011;47029;50.994;2.876;2023-01-31T04:43:07;18.33;;;6.65;;
61150;SDS011;47029;50.994;2.876;2023-01-31T04:45:33;16.98;;;6.12;;
61150;SDS011;47029;50.994;2.876;2023-01-31T04:47:58;23.73;;;6.87;;
61150;SDS011;47029;50.994;2.876;2023-01-31T04:50:24;18.87;;;6.70;;
61150;SDS011;47029;50.994;2.876;2023-01-31T04:52:50;17.80;;;6.93;;
61150;SDS011;47029;50.994;2.876;2023-01-31T04:55:20;20.73;;;7.47;;
61150;SDS011;47029;50.994;2.876;2023-01-31T04:57:45;21.10;;;7.28;;
61150;SDS011;47029;50.994;2.876;2023-01-31T05:00:14;20.23;;;6.90;;
61150;SDS011;47029;50.994;2.876;2023-01-31T05:02:40;20.95;;;8.27;;
61150;SDS011;47029;50.994;2.876;2023-01-31T05:05:06;23.65;;;7.37;;
61150;SDS011;47029;50.994;2.876;2023-01-31T05:07:32;19.42;;;6.87;;
61150;SDS011;47029;50.994;2.876;2023-01-31T05:09:58;20.90;;;6.53;;
61150;SDS011;47029;50.994;2.876;2023-01-31T05:12:24;18.90;;;6.53;;
61150;SDS011;47029;50.994;2.876;2023-01-31T05:14:50;25.02;;;7.93;;
61150;SDS011;47029;50.994;2.876;2023-01-31T05:17:18;19.87;;;7.43;;
61150;SDS011;47029;50.994;2.876;2023-01-31T05:19:50;21.60;;;7.18;;
61150;SDS011;47029;50.994;2.876;2023-01-31T05:22:16;17.15;;;7.12;;
61150;SDS011;47029;50.994;2.876;2023-01-31T05:24:46;24.98;;;7.72;;
61150;SDS011;47029;50.994;2.876;2023-01-31T05:27:12;17.35;;;6.25;;
61150;SDS011;47029;50.994;2.876;2023-01-31T05:29:38;20.62;;;6.87;;
61150;SDS011;47029;50.994;2.876;2023-01-31T05:32:03;21.80;;;7.03;;
61150;SDS011;47029;50.994;2.876;2023-01-31T05:34:29;24.70;;;7.82;;
61150;SDS011;47029;50.994;2.876;2023-01-31T05:36:57;18.45;;;6.57;;
61150;SDS011;47029;50.994;2.876;2023-01-31T05:39:23;25.12;;;8.07;;
61150;SDS011;47029;50.994;2.876;2023-01-31T05:41:52;18.75;;;7.03;;
61150;SDS011;47029;50.994;2.876;2023-01-31T05:44:18;19.85;;;6.53;;
61150;SDS011;47029;50.994;2.876;2023-01-31T05:46:44;20.73;;;7.00;;
61150;SDS011;47029;50.994;2.876;2023-01-31T05:49:10;19.85;;;6.87;;
61150;SDS011;47029;50.994;2.876;2023-01-31T05:51:38;20.83;;;6.70;;
61150;SDS011;47029;50.994;2.876;2023-01-31T05:54:04;25.58;;;6.82;;
61150;SDS011;47029;50.994;2.876;2023-01-31T05:56:30;18.50;;;6.53;;
61150;SDS011;47029;50.994;2.876;2023-01-31T05:58:56;20.67;;;6.62;;
61150;SDS011;47029;50.994;2.876;2023-01-31T06:01:24;18.98;;;6.95;;
61150;SDS011;47029;50.994;2.876;2023-01-31T06:03:51;18.62;;;6.95;;
61150;SDS011;47029;50.994;2.876;2023-01-31T06:06:17;20.48;;;6.95;;
61150;SDS011;47029;50.994;2.876;2023-01-31T06:08:43;20.70;;;6.35;;
61150;SDS011;47029;50.994;2.876;2023-01-31T06:11:10;21.40;;;7.10;;
61150;SDS011;47029;50.994;2.876;2023-01-31T06:13:36;17.33;;;7.00;;
61150;SDS011;47029;50.994;2.876;2023-01-31T06:16:05;19.55;;;7.18;;
61150;SDS011;47029;50.994;2.876;2023-01-31T06:18:31;18.23;;;7.25;;
61150;SDS011;47029;50.994;2.876;2023-01-31T06:20:57;22.73;;;7.18;;
61150;SDS011;47029;50.994;2.876;2023-01-31T06:23:23;17.10;;;7.07;;
61150;SDS011;47029;50.994;2.876;2023-01-31T06:25:49;20.88;;;7.70;;
61150;SDS011;47029;50.994;2.876;2023-01-31T06:28:16;24.60;;;7.53;;
61150;SDS011;47029;50.994;2.876;2023-01-31T06:30:42;19.60;;;7.85;;
61150;SDS011;47029;50.994;2.876;2023-01-31T06:33:08;22.40;;;6.93;;
61150;SDS011;47029;50.994;2.876;2023-01-31T06:35:34;20.60;;;6.93;;
61150;SDS011;47029;50.994;2.876;2023-01-31T06:38:00;19.33;;;7.30;;
61150;SDS011;47029;50.994;2.876;2023-01-31T06:40:26;22.52;;;8.18;;
61150;SDS011;47029;50.994;2.876;2023-01-31T06:42:52;22.52;;;8.45;;
61150;SDS011;47029;50.994;2.876;2023-01-31T06:45:20;19.15;;;7.22;;
61150;SDS011;47029;50.994;2.876;2023-01-31T06:47:46;17.27;;;7.10;;
61150;SDS011;47029;50.994;2.876;2023-01-31T06:50:12;22.15;;;7.75;;
61150;SDS011;47029;50.994;2.876;2023-01-31T06:52:38;20.67;;;6.35;;
61150;SDS011;47029;50.994;2.876;2023-01-31T06:55:07;20.65;;;7.40;;
61150;SDS011;47029;50.994;2.876;2023-01-31T06:57:33;18.08;;;7.07;;
61150;SDS011;47029;50.994;2.876;2023-01-31T06:59:59;19.37;;;6.55;;
61150;SDS011;47029;50.994;2.876;2023-01-31T07:02:27;18.62;;;7.07;;
61150;SDS011;47029;50.994;2.876;2023-01-31T07:04:53;21.50;;;7.40;;
61150;SDS011;47029;50.994;2.876;2023-01-31T07:07:19;16.58;;;6.62;;
61150;SDS011;47029;50.994;2.876;2023-01-31T07:09:45;19.77;;;7.53;;
61150;SDS011;47029;50.994;2.876;2023-01-31T07:12:13;24.02;;;8.85;;
61150;SDS011;47029;50.994;2.876;2023-01-31T07:14:39;19.67;;;7.22;;
61150;SDS011;47029;50.994;2.876;2023-01-31T07:17:07;19.08;;;8.18;;
61150;SDS011;47029;50.994;2.876;2023-01-31T07:19:34;19.12;;;6.62;;
61150;SDS011;47029;50.994;2.876;2023-01-31T07:22:00;16.50;;;6.90;;
61150;SDS011;47029;50.994;2.876;2023-01-31T07:24:26;19.17;;;6.72;;
61150;SDS011;47029;50.994;2.876;2023-01-31T07:26:52;19.10;;;7.60;;
61150;SDS011;47029;50.994;2.876;2023-01-31T07:29:18;25.90;;;7.55;;
61150;SDS011;47029;50.994;2.876;2023-01-31T07:31:44;16.92;;;7.00;;
61150;SDS011;47029;50.994;2.876;2023-01-31T07:34:09;21.92;;;7.18;;
61150;SDS011;47029;50.994;2.876;2023-01-31T07:36:35;19.67;;;6.30;;
61150;SDS011;47029;50.994;2.876;2023-01-31T07:39:03;18.27;;;6.70;;
61150;SDS011;47029;50.994;2.876;2023-01-31T07:41:30;17.92;;;6.28;;
61150;SDS011;47029;50.994;2.876;2023-01-31T07:43:57;16.52;;;6.25;;
61150;SDS011;47029;50.994;2.876;2023-01-31T07:46:23;17.48;;;6.68;;
61150;SDS011;47029;50.994;2.876;2023-01-31T07:48:51;18.65;;;6.78;;
61150;SDS011;47029;50.994;2.876;2023-01-31T07:51:17;18.87;;;6.35;;
61150;SDS011;47029;50.994;2.876;2023-01-31T07:53:42;18.83;;;6.25;;
61150;SDS011;47029;50.994;2.876;2023-01-31T07:56:10;18.05;;;5.97;;
61150;SDS011;47029;50.994;2.876;2023-01-31T07:58:38;18.58;;;6.78;;
61150;SDS011;47029;50.994;2.876;2023-01-31T08:01:05;19.37;;;6.03;;
61150;SDS011;47029;50.994;2.876;2023-01-31T08:03:50;17.15;;;5.85;;
61150;SDS011;47029;50.994;2.876;2023-01-31T08:06:16;18.73;;;5.95;;
61150;SDS011;47029;50.994;2.876;2023-01-31T08:08:43;16.50;;;5.95;;
61150;SDS011;47029;50.994;2.876;2023-01-31T08:11:09;18.55;;;5.93;;
61150;SDS011;47029;50.994;2.876;2023-01-31T08:13:36;21.10;;;6.95;;
61150;SDS011;47029;50.994;2.876;2023-01-31T08:16:03;18.15;;;5.75;;
61150;SDS011;47029;50.994;2.876;2023-01-31T08:18:30;22.52;;;6.05;;
61150;SDS011;47029;50.994;2.876;2023-01-31T08:20:57;19.92;;;6.22;;
61150;SDS011;47029;50.994;2.876;2023-01-31T08:23:23;14.40;;;5.32;;
61150;SDS011;47029;50.994;2.876;2023-01-31T08:25:50;17.05;;;5.05;;
61150;SDS011;47029;50.994;2.876;2023-01-31T08:28:16;18.15;;;4.32;;
61150;SDS011;47029;50.994;2.876;2023-01-31T08:30:42;20.48;;;4.87;;
61150;SDS011;47029;50.994;2.876;2023-01-31T08:33:09;16.23;;;4.10;;
61150;SDS011;47029;50.994;2.876;2023-01-31T08:35:37;13.15;;;3.60;;
61150;SDS011;47029;50.994;2.876;2023-01-31T08:38:03;14.95;;;3.78;;
61150;SDS011;47029;50.994;2.876;2023-01-31T08:40:29;20.77;;;4.37;;
61150;SDS011;47029;50.994;2.876;2023-01-31T08:42:56;13.68;;;3.40;;
61150;SDS011;47029;50.994;2.876;2023-01-31T08:45:24;11.93;;;3.50;;
61150;SDS011;47029;50.994;2.876;2023-01-31T08:47:54;17.58;;;4.55;;
61150;SDS011;47029;50.994;2.876;2023-01-31T08:50:21;14.87;;;4.15;;
61150;SDS011;47029;50.994;2.876;2023-01-31T08:52:54;13.25;;;3.40;;
61150;SDS011;47029;50.994;2.876;2023-01-31T08:55:21;11.38;;;3.17;;
61150;SDS011;47029;50.994;2.876;2023-01-31T08:57:48;11.85;;;3.42;;
61150;SDS011;47029;50.994;2.876;2023-01-31T09:00:14;15.05;;;3.87;;
61150;SDS011;47029;50.994;2.876;2023-01-31T09:02:40;11.35;;;3.47;;
61150;SDS011;47029;50.994;2.876;2023-01-31T09:05:06;18.33;;;4.03;;
61150;SDS011;47029;50.994;2.876;2023-01-31T09:07:33;11.60;;;3.22;;
61150;SDS011;47029;50.994;2.876;2023-01-31T09:10:02;16.37;;;3.85;;
61150;SDS011;47029;50.994;2.876;2023-01-31T09:12:28;19.73;;;4.40;;
61150;SDS011;47029;50.994;2.876;2023-01-31T09:14:55;23.52;;;5.03;;
61150;SDS011;47029;50.994;2.876;2023-01-31T09:17:21;10.77;;;3.50;;
61150;SDS011;47029;50.994;2.876;2023-01-31T09:19:47;12.30;;;3.42;;
61150;SDS011;47029;50.994;2.876;2023-01-31T09:22:13;10.02;;;3.50;;
61150;SDS011;47029;50.994;2.876;2023-01-31T09:24:39;14.32;;;3.05;;
61150;SDS011;47029;50.994;2.876;2023-01-31T09:27:04;15.93;;;3.80;;
61150;SDS011;47029;50.994;2.876;2023-01-31T09:29:30;14.25;;;3.58;;
61150;SDS011;47029;50.994;2.876;2023-01-31T09:31:56;14.87;;;3.92;;
61150;SDS011;47029;50.994;2.876;2023-01-31T09:34:22;16.95;;;3.47;;
61150;SDS011;47029;50.994;2.876;2023-01-31T09:36:47;11.35;;;3.20;;
61150;SDS011;47029;50.994;2.876;2023-01-31T09:39:13;14.02;;;3.62;;
61150;SDS011;47029;50.994;2.876;2023-01-31T09:41:46;11.45;;;3.33;;
61150;SDS011;47029;50.994;2.876;2023-01-31T09:44:21;11.98;;;4.45;;
61150;SDS011;47029;50.994;2.876;2023-01-31T09:47:11;12.35;;;3.17;;
61150;SDS011;47029;50.994;2.876;2023-01-31T09:49:43;13.00;;;3.28;;
61150;SDS011;47029;50.994;2.876;2023-01-31T09:52:18;18.08;;;4.30;;
61150;SDS011;47029;50.994;2.876;2023-01-31T09:54:46;15.13;;;3.50;;
61150;SDS011;47029;50.994;2.876;2023-01-31T09:59:47;9.95;;;3.15;;
61150;SDS011;47029;50.994;2.876;2023-01-31T10:07:27;16.58;;;3.58;;
61150;SDS011;47029;50.994;2.876;2023-01-31T10:12:23;15.10;;;3.90;;
61150;SDS011;47029;50.994;2.876;2023-01-31T10:15:04;14.48;;;4.07;;
61150;SDS011;47029;50.994;2.876;2023-01-31T10:17:41;20.92;;;3.80;;
61150;SDS011;47029;50.994;2.876;2023-01-31T10:20:37;15.68;;;3.90;;
61150;SDS011;47029;50.994;2.876;2023-01-31T10:25:47;9.40;;;2.95;;
61150;SDS011;47029;50.994;2.876;2023-01-31T10:28:20;11.05;;;3.37;;
61150;SDS011;47029;50.994;2.876;2023-01-31T10:36:21;13.50;;;4.18;;
61150;SDS011;47029;50.994;2.876;2023-01-31T10:41:28;12.85;;;3.45;;
61150;SDS011;47029;50.994;2.876;2023-01-31T10:44:05;13.98;;;3.20;;
61150;SDS011;47029;50.994;2.876;2023-01-31T10:46:39;11.85;;;3.22;;
61150;SDS011;47029;50.994;2.876;2023-01-31T10:49:06;14.98;;;3.80;;
61150;SDS011;47029;50.994;2.876;2023-01-31T10:56:45;13.30;;;3.60;;
61150;SDS011;47029;50.994;2.876;2023-01-31T11:01:45;11.82;;;3.60;;
61150;SDS011;47029;50.994;2.876;2023-01-31T11:04:21;14.57;;;3.78;;
61150;SDS011;47029;50.994;2.876;2023-01-31T11:06:55;12.95;;;3.42;;
61150;SDS011;47029;50.994;2.876;2023-01-31T11:09:29;10.80;;;3.72;;
61150;SDS011;47029;50.994;2.876;2023-01-31T11:12:07;11.98;;;2.90;;
61150;SDS011;47029;50.994;2.876;2023-01-31T11:14:33;11.00;;;3.60;;
61150;SDS011;47029;50.994;2.876;2023-01-31T11:17:04;15.52;;;3.55;;
61150;SDS011;47029;50.994;2.876;2023-01-31T11:19:47;13.23;;;3.65;;
61150;SDS011;47029;50.994;2.876;2023-01-31T11:22:39;16.50;;;4.82;;
61150;SDS011;47029;50.994;2.876;2023-01-31T11:25:04;14.82;;;3.42;;
61150;SDS011;47029;50.994;2.876;2023-01-31T11:27:42;15.43;;;3.78;;
61150;SDS011;47029;50.994;2.876;2023-01-31T11:30:22;17.85;;;3.92;;
61150;SDS011;47029;50.994;2.876;2023-01-31T11:32:55;15.55;;;3.50;;
61150;SDS011;47029;50.994;2.876;2023-01-31T11:42:58;13.27;;;3.55;;
61150;SDS011;47029;50.994;2.876;2023-01-31T11:45:32;13.80;;;3.28;;
61150;SDS011;47029;50.994;2.876;2023-01-31T11:48:08;13.43;;;4.62;;
61150;SDS011;47029;50.994;2.876;2023-01-31T11:50:42;13.23;;;3.45;;
61150;SDS011;47029;50.994;2.876;2023-01-31T11:56:30;11.30;;;3.85;;
61150;SDS011;47029;50.994;2.876;2023-01-31T11:59:02;13.50;;;3.72;;
61150;SDS011;47029;50.994;2.876;2023-01-31T12:01:34;12.63;;;3.08;;
61150;SDS011;47029;50.994;2.876;2023-01-31T12:04:10;17.08;;;5.05;;
61150;SDS011;47029;50.994;2.876;2023-01-31T12:06:53;17.70;;;3.87;;
61150;SDS011;47029;50.994;2.876;2023-01-31T12:09:23;12.07;;;3.35;;
61150;SDS011;47029;50.994;2.876;2023-01-31T12:14:18;9.18;;;3.05;;
61150;SDS011;47029;50.994;2.876;2023-01-31T12:16:43;14.05;;;3.35;;
61150;SDS011;47029;50.994;2.876;2023-01-31T12:27:33;10.73;;;3.35;;
61150;SDS011;47029;50.994;2.876;2023-01-31T12:41:18;14.95;;;4.40;;
61150;SDS011;47029;50.994;2.876;2023-01-31T12:55:25;14.57;;;3.97;;
61150;SDS011;47029;50.994;2.876;2023-01-31T12:58:18;12.00;;;3.50;;
61150;SDS011;47029;50.994;2.876;2023-01-31T13:01:08;12.68;;;3.60;;
61150;SDS011;47029;50.994;2.876;2023-01-31T13:03:43;11.10;;;3.53;;
61150;SDS011;47029;50.994;2.876;2023-01-31T13:06:36;15.25;;;3.58;;
61150;SDS011;47029;50.994;2.876;2023-01-31T13:14:16;15.85;;;3.92;;
61150;SDS011;47029;50.994;2.876;2023-01-31T13:16:49;13.85;;;3.60;;
61150;SDS011;47029;50.994;2.876;2023-01-31T13:22:00;15.82;;;3.60;;
61150;SDS011;47029;50.994;2.876;2023-01-31T13:24:35;9.93;;;3.55;;
61150;SDS011;47029;50.994;2.876;2023-01-31T13:27:08;11.40;;;3.33;;
61150;SDS011;47029;50.994;2.876;2023-01-31T13:29:37;13.77;;;3.50;;
61150;SDS011;47029;50.994;2.876;2023-01-31T13:34:50;15.40;;;3.50;;
61150;SDS011;47029;50.994;2.876;2023-01-31T13:37:19;14.18;;;3.87;;
61150;SDS011;47029;50.994;2.876;2023-01-31T13:39:47;15.05;;;3.83;;
61150;SDS011;47029;50.994;2.876;2023-01-31T13:42:21;17.35;;;4.20;;
61150;SDS011;47029;50.994;2.876;2023-01-31T13:44:47;10.32;;;3.10;;
61150;SDS011;47029;50.994;2.876;2023-01-31T13:47:21;10.63;;;3.60;;
61150;SDS011;47029;50.994;2.876;2023-01-31T13:49:53;11.73;;;3.80;;
61150;SDS011;47029;50.994;2.876;2023-01-31T13:52:31;14.27;;;3.37;;
61150;SDS011;47029;50.994;2.876;2023-01-31T13:55:07;12.15;;;3.28;;
61150;SDS011;47029;50.994;2.876;2023-01-31T13:57:41;10.13;;;3.62;;
61150;SDS011;47029;50.994;2.876;2023-01-31T14:02:58;14.48;;;3.47;;
61150;SDS011;47029;50.994;2.876;2023-01-31T14:13:45;10.07;;;3.25;;
61150;SDS011;47029;50.994;2.876;2023-01-31T14:19:03;12.70;;;3.80;;
61150;SDS011;47029;50.994;2.876;2023-01-31T14:21:52;9.65;;;3.65;;
61150;SDS011;47029;50.994;2.876;2023-01-31T14:24:20;13.07;;;3.72;;
61150;SDS011;47029;50.994;2.876;2023-01-31T14:27:10;12.25;;;3.20;;
61150;SDS011;47029;50.994;2.876;2023-01-31T14:29:45;16.52;;;3.62;;
61150;SDS011;47029;50.994;2.876;2023-01-31T14:32:36;8.55;;;3.20;;
61150;SDS011;47029;50.994;2.876;2023-01-31T14:55:23;12.07;;;3.70;;
61150;SDS011;47029;50.994;2.876;2023-01-31T14:58:03;10.05;;;3.40;;
61150;SDS011;47029;50.994;2.876;2023-01-31T15:00:32;12.63;;;3.58;;
61150;SDS011;47029;50.994;2.876;2023-01-31T15:05:50;11.85;;;3.92;;
61150;SDS011;47029;50.994;2.876;2023-01-31T15:24:18;13.93;;;3.60;;
61150;SDS011;47029;50.994;2.876;2023-01-31T15:26:50;11.60;;;3.45;;
61150;SDS011;47029;50.994;2.876;2023-01-31T15:29:18;10.40;;;3.50;;
61150;SDS011;47029;50.994;2.876;2023-01-31T15:31:49;11.48;;;3.70;;
61150;SDS011;47029;50.994;2.876;2023-01-31T15:34:19;12.27;;;4.20;;
61150;SDS011;47029;50.994;2.876;2023-01-31T15:39:47;10.63;;;3.50;;
61150;SDS011;47029;50.994;2.876;2023-01-31T15:42:28;12.15;;;4.28;;
61150;SDS011;47029;50.994;2.876;2023-01-31T15:47:53;10.63;;;3.72;;
61150;SDS011;47029;50.994;2.876;2023-01-31T15:50:24;14.95;;;4.57;;
61150;SDS011;47029;50.994;2.876;2023-01-31T15:52:53;11.70;;;4.18;;
61150;SDS011;47029;50.994;2.876;2023-01-31T15:55:19;17.50;;;4.00;;
61150;SDS011;47029;50.994;2.876;2023-01-31T15:57:55;12.30;;;3.80;;
61150;SDS011;47029;50.994;2.876;2023-01-31T16:00:27;12.00;;;4.20;;
61150;SDS011;47029;50.994;2.876;2023-01-31T16:02:55;11.88;;;4.03;;
61150;SDS011;47029;50.994;2.876;2023-01-31T16:07:57;11.70;;;4.70;;
61150;SDS011;47029;50.994;2.876;2023-01-31T16:10:24;14.50;;;4.78;;
61150;SDS011;47029;50.994;2.876;2023-01-31T16:12:51;13.10;;;4.97;;
61150;SDS011;47029;50.994;2.876;2023-01-31T16:15:22;16.33;;;5.30;;
61150;SDS011;47029;50.994;2.876;2023-01-31T16:17:54;11.35;;;3.87;;
61150;SDS011;47029;50.994;2.876;2023-01-31T16:23:03;14.50;;;4.20;;
61150;SDS011;47029;50.994;2.876;2023-01-31T16:25:32;15.15;;;5.03;;
61150;SDS011;47029;50.994;2.876;2023-01-31T16:28:06;16.27;;;6.30;;
61150;SDS011;47029;50.994;2.876;2023-01-31T16:30:35;18.05;;;5.72;;
61150;SDS011;47029;50.994;2.876;2023-01-31T16:33:02;15.25;;;4.60;;
61150;SDS011;47029;50.994;2.876;2023-01-31T16:35:28;12.65;;;4.53;;
61150;SDS011;47029;50.994;2.876;2023-01-31T16:38:01;14.75;;;5.20;;
61150;SDS011;47029;50.994;2.876;2023-01-31T16:40:30;17.05;;;5.32;;
61150;SDS011;47029;50.994;2.876;2023-01-31T16:43:09;18.73;;;6.20;;
61150;SDS011;47029;50.994;2.876;2023-01-31T16:50:59;13.45;;;4.82;;
61150;SDS011;47029;50.994;2.876;2023-01-31T16:53:45;13.20;;;4.10;;
61150;SDS011;47029;50.994;2.876;2023-01-31T16:56:34;11.25;;;4.00;;
61150;SDS011;47029;50.994;2.876;2023-01-31T16:59:00;14.32;;;5.00;;
61150;SDS011;47029;50.994;2.876;2023-01-31T17:01:29;17.55;;;4.75;;
61150;SDS011;47029;50.994;2.876;2023-01-31T17:06:38;14.13;;;4.53;;
61150;SDS011;47029;50.994;2.876;2023-01-31T17:09:05;16.17;;;5.18;;
61150;SDS011;47029;50.994;2.876;2023-01-31T17:11:32;16.10;;;4.35;;
61150;SDS011;47029;50.994;2.876;2023-01-31T17:13:58;14.68;;;4.45;;
61150;SDS011;47029;50.994;2.876;2023-01-31T17:16:24;19.00;;;4.93;;
61150;SDS011;47029;50.994;2.876;2023-01-31T17:18:51;15.77;;;6.10;;
61150;SDS011;47029;50.994;2.876;2023-01-31T17:21:18;32.10;;;11.57;;
61150;SDS011;47029;50.994;2.876;2023-01-31T17:23:48;19.17;;;6.05;;
61150;SDS011;47029;50.994;2.876;2023-01-31T17:26:15;20.37;;;6.85;;
61150;SDS011;47029;50.994;2.876;2023-01-31T17:28:45;19.50;;;7.12;;
61150;SDS011;47029;50.994;2.876;2023-01-31T17:31:17;17.15;;;6.00;;
61150;SDS011;47029;50.994;2.876;2023-01-31T17:33:44;14.55;;;5.40;;
61150;SDS011;47029;50.994;2.876;2023-01-31T17:36:14;12.02;;;5.05;;
61150;SDS011;47029;50.994;2.876;2023-01-31T17:38:40;18.73;;;5.57;;
61150;SDS011;47029;50.994;2.876;2023-01-31T17:41:10;14.85;;;4.82;;
61150;SDS011;47029;50.994;2.876;2023-01-31T17:43:38;17.65;;;5.50;;
61150;SDS011;47029;50.994;2.876;2023-01-31T17:46:06;21.62;;;5.57;;
61150;SDS011;47029;50.994;2.876;2023-01-31T17:48:35;16.95;;;5.97;;
61150;SDS011;47029;50.994;2.876;2023-01-31T17:51:03;17.23;;;5.47;;
61150;SDS011;47029;50.994;2.876;2023-01-31T17:53:29;14.10;;;4.75;;
61150;SDS011;47029;50.994;2.876;2023-01-31T17:55:55;14.63;;;4.57;;
61150;SDS011;47029;50.994;2.876;2023-01-31T17:58:23;15.50;;;4.57;;
61150;SDS011;47029;50.994;2.876;2023-01-31T18:00:51;13.20;;;4.53;;
61150;SDS011;47029;50.994;2.876;2023-01-31T18:03:18;15.73;;;4.87;;
61150;SDS011;47029;50.994;2.876;2023-01-31T18:05:45;16.02;;;4.78;;
61150;SDS011;47029;50.994;2.876;2023-01-31T18:08:11;16.00;;;5.32;;
61150;SDS011;47029;50.994;2.876;2023-01-31T18:10:38;16.75;;;5.32;;
61150;SDS011;47029;50.994;2.876;2023-01-31T18:13:06;18.37;;;5.45;;
61150;SDS011;47029;50.994;2.876;2023-01-31T18:15:35;15.68;;;5.57;;